sensor_id;sensor_type;location;lat;lon;timestamp;temperature;humidity
15013;DHT22;7603;49.432;11.418;2023-02-12T00:02:06;4.40;99.90
15013;DHT22;7603;49.432;11.418;2023-02-12T00:04:31;4.30;99.90
15013;DHT22;7603;49.432;11.418;2023-02-12T00:06:57;4.30;99.90
15013;DHT22;7603;49.432;11.418;2023-02-12T00:09:22;4.30;99.90
15013;DHT22;7603;49.432;11.418;2023-02-12T00:11:48;4.30;99.90
15013;DHT22;7603;49.432;11.418;2023-02-12T00:14:13;4.30;99.90
15013;DHT22;7603;49.432;11.418;2023-02-12T00:16:39;4.30;99.90
15013;DHT22;7603;49.432;11.418;2023-02-12T00:19:04;4.30;99.90
15013;DHT22;7603;49.432;11.418;2023-02-12T00:21:30;4.30;99.90
15013;DHT22;7603;49.432;11.418;2023-02-12T00:23:56;4.30;99.90
15013;DHT22;7603;49.432;11.418;2023-02-12T00:26:22;4.30;99.90
15013;DHT22;7603;49.432;11.418;2023-02-12T00:28:48;4.30;99.90
15013;DHT22;7603;49.432;11.418;2023-02-12T00:31:17;4.40;99.90
15013;DHT22;7603;49.432;11.418;2023-02-12T00:33:43;4.40;99.90
15013;DHT22;7603;49.432;11.418;2023-02-12T00:36:13;4.40;99.90
15013;DHT22;7603;49.432;11.418;2023-02-12T00:38:39;4.40;99.90
15013;DHT22;7603;49.432;11.418;2023-02-12T00:41:05;4.40;99.90
15013;DHT22;7603;49.432;11.418;2023-02-12T00:43:30;4.40;99.90
15013;DHT22;7603;49.432;11.418;2023-02-12T00:45:56;4.50;99.90
15013;DHT22;7603;49.432;11.418;2023-02-12T00:48:21;4.50;99.90
15013;DHT22;7603;49.432;11.418;2023-02-12T00:50:48;4.50;99.90
15013;DHT22;7603;49.432;11.418;2023-02-12T00:53:14;4.40;99.90
15013;DHT22;7603;49.432;11.418;2023-02-12T00:55:40;4.50;99.90
15013;DHT22;7603;49.432;11.418;2023-02-12T00:58:06;4.40;99.90
15013;DHT22;7603;49.432;11.418;2023-02-12T01:00:33;4.40;99.90
15013;DHT22;7603;49.432;11.418;2023-02-12T01:02:58;4.40;99.90
15013;DHT22;7603;49.432;11.418;2023-02-12T01:05:24;4.40;99.90
15013;DHT22;7603;49.432;11.418;2023-02-12T01:07:51;4.40;99.90
15013;DHT22;7603;49.432;11.418;2023-02-12T01:10:18;4.40;99.90
15013;DHT22;7603;49.432;11.418;2023-02-12T01:12:45;4.50;99.90
15013;DHT22;7603;49.432;11.418;2023-02-12T01:15:12;4.40;99.90
15013;DHT22;7603;49.432;11.418;2023-02-12T01:17:37;4.40;99.90
15013;DHT22;7603;49.432;11.418;2023-02-12T01:20:06;4.40;99.90
15013;DHT22;7603;49.432;11.418;2023-02-12T01:22:35;4.40;99.90
15013;DHT22;7603;49.432;11.418;2023-02-12T01:25:02;4.40;99.90
15013;DHT22;7603;49.432;11.418;2023-02-12T01:27:28;4.40;99.90
15013;DHT22;7603;49.432;11.418;2023-02-12T01:29:54;4.40;99.90
15013;DHT22;7603;49.432;11.418;2023-02-12T01:32:19;4.40;99.90
15013;DHT22;7603;49.432;11.418;2023-02-12T01:34:45;4.40;99.90
15013;DHT22;7603;49.432;11.418;2023-02-12T01:37:11;4.50;99.90
15013;DHT22;7603;49.432;11.418;2023-02-12T01:39:36;4.50;99.90
15013;DHT22;7603;49.432;11.418;2023-02-12T01:42:03;4.40;99.90
15013;DHT22;7603;49.432;11.418;2023-02-12T01:44:30;4.40;99.90
15013;DHT22;7603;49.432;11.418;2023-02-12T01:46:59;4.50;99.90
15013;DHT22;7603;49.432;11.418;2023-02-12T01:49:38;4.50;99.90
15013;DHT22;7603;49.432;11.418;2023-02-12T01:54:35;4.50;99.90
15013;DHT22;7603;49.432;11.418;2023-02-12T01:57:03;4.40;99.90
15013;DHT22;7603;49.432;11.418;2023-02-12T01:59:30;4.50;99.90
15013;DHT22;7603;49.432;11.418;2023-02-12T02:01:56;4.50;99.90
15013;DHT22;7603;49.432;11.418;2023-02-12T02:04:29;4.50;99.90
15013;DHT22;7603;49.432;11.418;2023-02-12T02:07:01;4.50;99.90
15013;DHT22;7603;49.432;11.418;2023-02-12T02:09:29;4.50;99.90
15013;DHT22;7603;49.432;11.418;2023-02-12T02:11:55;4.50;99.90
15013;DHT22;7603;49.432;11.418;2023-02-12T02:14:40;4.50;99.90
15013;DHT22;7603;49.432;11.418;2023-02-12T02:30:50;4.50;99.90
15013;DHT22;7603;49.432;11.418;2023-02-12T02:33:39;4.50;99.90
15013;DHT22;7603;49.432;11.418;2023-02-12T02:41:18;4.50;99.90
15013;DHT22;7603;49.432;11.418;2023-02-12T02:43:48;4.50;99.90
15013;DHT22;7603;49.432;11.418;2023-02-12T02:46:31;4.50;99.90
15013;DHT22;7603;49.432;11.418;2023-02-12T02:49:04;4.50;99.90
15013;DHT22;7603;49.432;11.418;2023-02-12T02:51:35;4.40;99.90
15013;DHT22;7603;49.432;11.418;2023-02-12T02:54:06;4.40;99.90
15013;DHT22;7603;49.432;11.418;2023-02-12T02:56:37;4.40;99.90
15013;DHT22;7603;49.432;11.418;2023-02-12T02:59:12;4.30;99.90
15013;DHT22;7603;49.432;11.418;2023-02-12T03:02:10;4.30;99.90
15013;DHT22;7603;49.432;11.418;2023-02-12T03:04:43;4.20;99.90
15013;DHT22;7603;49.432;11.418;2023-02-12T03:07:20;4.20;99.90
15013;DHT22;7603;49.432;11.418;2023-02-12T03:09:59;4.30;99.90
15013;DHT22;7603;49.432;11.418;2023-02-12T03:12:32;4.20;99.90
15013;DHT22;7603;49.432;11.418;2023-02-12T03:15:05;4.20;99.90
15013;DHT22;7603;49.432;11.418;2023-02-12T03:17:39;4.20;99.90
15013;DHT22;7603;49.432;11.418;2023-02-12T03:20:15;4.30;99.90
15013;DHT22;7603;49.432;11.418;2023-02-12T03:22:48;4.30;99.90
15013;DHT22;7603;49.432;11.418;2023-02-12T03:25:19;4.30;99.90
15013;DHT22;7603;49.432;11.418;2023-02-12T03:28:03;4.30;99.90
15013;DHT22;7603;49.432;11.418;2023-02-12T03:36:00;4.30;99.90
15013;DHT22;7603;49.432;11.418;2023-02-12T03:38:42;4.30;99.90
15013;DHT22;7603;49.432;11.418;2023-02-12T03:41:26;4.30;99.90
15013;DHT22;7603;49.432;11.418;2023-02-12T03:44:22;4.30;99.90
15013;DHT22;7603;49.432;11.418;2023-02-12T03:49:28;4.30;99.90
15013;DHT22;7603;49.432;11.418;2023-02-12T03:51:54;4.30;99.90
15013;DHT22;7603;49.432;11.418;2023-02-12T03:54:21;4.30;99.90
15013;DHT22;7603;49.432;11.418;2023-02-12T03:59:34;4.30;99.90
15013;DHT22;7603;49.432;11.418;2023-02-12T04:02:02;4.30;99.90
15013;DHT22;7603;49.432;11.418;2023-02-12T04:04:28;4.30;99.90
15013;DHT22;7603;49.432;11.418;2023-02-12T04:06:54;4.30;99.90
15013;DHT22;7603;49.432;11.418;2023-02-12T04:09:21;4.20;99.90
15013;DHT22;7603;49.432;11.418;2023-02-12T04:12:08;4.20;99.90
15013;DHT22;7603;49.432;11.418;2023-02-12T04:17:39;4.20;99.90
15013;DHT22;7603;49.432;11.418;2023-02-12T04:20:21;4.20;99.90
15013;DHT22;7603;49.432;11.418;2023-02-12T04:23:08;4.20;99.90
15013;DHT22;7603;49.432;11.418;2023-02-12T04:25:54;4.20;99.90
15013;DHT22;7603;49.432;11.418;2023-02-12T04:28:33;4.10;99.90
15013;DHT22;7603;49.432;11.418;2023-02-12T04:31:10;4.10;99.90
15013;DHT22;7603;49.432;11.418;2023-02-12T04:33:46;4.20;99.90
15013;DHT22;7603;49.432;11.418;2023-02-12T04:36:16;4.10;99.90
15013;DHT22;7603;49.432;11.418;2023-02-12T04:38:53;4.10;99.90
15013;DHT22;7603;49.432;11.418;2023-02-12T04:41:20;4.10;99.90
15013;DHT22;7603;49.432;11.418;2023-02-12T04:43:46;4.10;99.90
15013;DHT22;7603;49.432;11.418;2023-02-12T04:46:12;4.10;99.90
15013;DHT22;7603;49.432;11.418;2023-02-12T04:48:55;4.10;99.90
15013;DHT22;7603;49.432;11.418;2023-02-12T04:51:21;4.20;99.90
15013;DHT22;7603;49.432;11.418;2023-02-12T04:53:47;4.20;99.90
15013;DHT22;7603;49.432;11.418;2023-02-12T04:56:13;4.20;99.90
15013;DHT22;7603;49.432;11.418;2023-02-12T04:58:40;4.20;99.90
15013;DHT22;7603;49.432;11.418;2023-02-12T05:01:07;4.10;99.90
15013;DHT22;7603;49.432;11.418;2023-02-12T05:03:33;4.10;99.90
15013;DHT22;7603;49.432;11.418;2023-02-12T05:06:03;4.10;99.90
15013;DHT22;7603;49.432;11.418;2023-02-12T05:08:29;4.20;99.90
15013;DHT22;7603;49.432;11.418;2023-02-12T05:10:54;4.20;99.90
15013;DHT22;7603;49.432;11.418;2023-02-12T05:13:20;4.20;99.90
15013;DHT22;7603;49.432;11.418;2023-02-12T05:15:45;4.10;99.90
15013;DHT22;7603;49.432;11.418;2023-02-12T05:18:11;4.10;99.90
15013;DHT22;7603;49.432;11.418;2023-02-12T05:20:36;4.10;99.90
15013;DHT22;7603;49.432;11.418;2023-02-12T05:23:02;4.10;99.90
15013;DHT22;7603;49.432;11.418;2023-02-12T05:25:28;4.20;99.90
15013;DHT22;7603;49.432;11.418;2023-02-12T05:27:53;4.20;99.90
15013;DHT22;7603;49.432;11.418;2023-02-12T05:30:21;4.20;99.90
15013;DHT22;7603;49.432;11.418;2023-02-12T05:32:46;4.20;99.90
15013;DHT22;7603;49.432;11.418;2023-02-12T05:35:12;4.20;99.90
15013;DHT22;7603;49.432;11.418;2023-02-12T05:37:37;4.20;99.90
15013;DHT22;7603;49.432;11.418;2023-02-12T05:40:04;4.20;99.90
15013;DHT22;7603;49.432;11.418;2023-02-12T05:42:30;4.20;99.90
15013;DHT22;7603;49.432;11.418;2023-02-12T05:44:55;4.20;99.90
15013;DHT22;7603;49.432;11.418;2023-02-12T05:47:21;4.20;99.90
15013;DHT22;7603;49.432;11.418;2023-02-12T05:49:46;4.20;99.90
15013;DHT22;7603;49.432;11.418;2023-02-12T05:52:12;4.10;99.90
15013;DHT22;7603;49.432;11.418;2023-02-12T05:54:38;4.10;99.90
15013;DHT22;7603;49.432;11.418;2023-02-12T05:57:05;4.00;99.90
15013;DHT22;7603;49.432;11.418;2023-02-12T05:59:31;4.00;99.90
15013;DHT22;7603;49.432;11.418;2023-02-12T06:01:58;4.00;99.90
15013;DHT22;7603;49.432;11.418;2023-02-12T06:04:26;4.00;99.90
15013;DHT22;7603;49.432;11.418;2023-02-12T06:06:53;4.00;99.90
15013;DHT22;7603;49.432;11.418;2023-02-12T06:09:20;4.00;99.90
15013;DHT22;7603;49.432;11.418;2023-02-12T06:11:46;4.00;99.90
15013;DHT22;7603;49.432;11.418;2023-02-12T06:14:15;4.00;99.90
15013;DHT22;7603;49.432;11.418;2023-02-12T06:16:44;4.00;99.90
15013;DHT22;7603;49.432;11.418;2023-02-12T06:19:11;4.00;99.90
15013;DHT22;7603;49.432;11.418;2023-02-12T06:21:37;4.00;99.90
15013;DHT22;7603;49.432;11.418;2023-02-12T06:24:03;4.00;99.90
15013;DHT22;7603;49.432;11.418;2023-02-12T06:26:29;4.00;99.90
15013;DHT22;7603;49.432;11.418;2023-02-12T06:28:54;4.10;99.90
15013;DHT22;7603;49.432;11.418;2023-02-12T06:31:38;4.00;99.90
15013;DHT22;7603;49.432;11.418;2023-02-12T06:34:06;4.00;99.90
15013;DHT22;7603;49.432;11.418;2023-02-12T06:36:33;4.10;99.90
15013;DHT22;7603;49.432;11.418;2023-02-12T06:39:02;4.00;99.90
15013;DHT22;7603;49.432;11.418;2023-02-12T06:41:28;4.00;99.90
15013;DHT22;7603;49.432;11.418;2023-02-12T06:43:53;4.00;99.90
15013;DHT22;7603;49.432;11.418;2023-02-12T06:46:19;4.00;99.90
15013;DHT22;7603;49.432;11.418;2023-02-12T06:48:44;4.00;99.90
15013;DHT22;7603;49.432;11.418;2023-02-12T06:51:16;4.10;99.90
15013;DHT22;7603;49.432;11.418;2023-02-12T06:53:42;4.10;99.90
15013;DHT22;7603;49.432;11.418;2023-02-12T06:56:10;4.10;99.90
15013;DHT22;7603;49.432;11.418;2023-02-12T06:58:38;4.20;99.90
15013;DHT22;7603;49.432;11.418;2023-02-12T07:01:09;4.20;99.90
15013;DHT22;7603;49.432;11.418;2023-02-12T07:03:38;4.30;99.90
15013;DHT22;7603;49.432;11.418;2023-02-12T07:06:04;4.30;99.90
15013;DHT22;7603;49.432;11.418;2023-02-12T07:08:30;4.30;99.90
15013;DHT22;7603;49.432;11.418;2023-02-12T07:10:56;4.30;99.90
15013;DHT22;7603;49.432;11.418;2023-02-12T07:13:21;4.40;99.90
15013;DHT22;7603;49.432;11.418;2023-02-12T07:15:47;4.40;99.90
15013;DHT22;7603;49.432;11.418;2023-02-12T07:18:12;4.40;99.90
15013;DHT22;7603;49.432;11.418;2023-02-12T07:20:38;4.40;99.90
15013;DHT22;7603;49.432;11.418;2023-02-12T07:23:03;4.40;99.90
15013;DHT22;7603;49.432;11.418;2023-02-12T07:25:29;4.50;99.90
15013;DHT22;7603;49.432;11.418;2023-02-12T07:27:54;4.60;99.90
15013;DHT22;7603;49.432;11.418;2023-02-12T07:30:20;4.60;99.90
15013;DHT22;7603;49.432;11.418;2023-02-12T07:32:46;4.70;99.90
15013;DHT22;7603;49.432;11.418;2023-02-12T07:35:11;4.80;99.90
15013;DHT22;7603;49.432;11.418;2023-02-12T07:37:37;4.90;99.90
15013;DHT22;7603;49.432;11.418;2023-02-12T07:40:03;4.90;99.90
15013;DHT22;7603;49.432;11.418;2023-02-12T07:42:28;4.90;99.90
15013;DHT22;7603;49.432;11.418;2023-02-12T07:44:54;5.00;99.90
15013;DHT22;7603;49.432;11.418;2023-02-12T07:47:20;5.00;99.90
15013;DHT22;7603;49.432;11.418;2023-02-12T07:49:45;5.10;99.90
15013;DHT22;7603;49.432;11.418;2023-02-12T07:52:11;5.10;99.90
15013;DHT22;7603;49.432;11.418;2023-02-12T07:54:36;5.20;99.90
15013;DHT22;7603;49.432;11.418;2023-02-12T07:57:02;5.20;99.90
15013;DHT22;7603;49.432;11.418;2023-02-12T07:59:28;5.20;99.90
15013;DHT22;7603;49.432;11.418;2023-02-12T08:01:54;5.30;99.90
15013;DHT22;7603;49.432;11.418;2023-02-12T08:04:22;5.30;99.90
15013;DHT22;7603;49.432;11.418;2023-02-12T08:06:51;5.30;99.90
15013;DHT22;7603;49.432;11.418;2023-02-12T08:09:18;5.40;99.90
15013;DHT22;7603;49.432;11.418;2023-02-12T08:11:45;5.50;99.90
15013;DHT22;7603;49.432;11.418;2023-02-12T08:14:13;5.50;99.90
15013;DHT22;7603;49.432;11.418;2023-02-12T08:16:41;5.60;99.90
15013;DHT22;7603;49.432;11.418;2023-02-12T08:19:07;5.70;99.90
15013;DHT22;7603;49.432;11.418;2023-02-12T08:21:33;5.80;99.90
15013;DHT22;7603;49.432;11.418;2023-02-12T08:23:59;6.00;99.90
15013;DHT22;7603;49.432;11.418;2023-02-12T08:26:36;6.10;99.90
15013;DHT22;7603;49.432;11.418;2023-02-12T08:29:12;6.30;99.90
15013;DHT22;7603;49.432;11.418;2023-02-12T08:31:43;6.30;99.90
15013;DHT22;7603;49.432;11.418;2023-02-12T08:34:17;6.50;99.90
15013;DHT22;7603;49.432;11.418;2023-02-12T08:36:44;6.50;99.90
15013;DHT22;7603;49.432;11.418;2023-02-12T08:39:10;6.50;99.90
15013;DHT22;7603;49.432;11.418;2023-02-12T08:41:36;6.60;99.90
15013;DHT22;7603;49.432;11.418;2023-02-12T08:44:03;6.80;99.90
15013;DHT22;7603;49.432;11.418;2023-02-12T08:46:32;6.90;99.90
15013;DHT22;7603;49.432;11.418;2023-02-12T08:49:00;7.00;99.90
15013;DHT22;7603;49.432;11.418;2023-02-12T08:51:29;7.10;99.90
15013;DHT22;7603;49.432;11.418;2023-02-12T08:53:58;7.20;99.90
15013;DHT22;7603;49.432;11.418;2023-02-12T08:56:25;7.30;99.90
15013;DHT22;7603;49.432;11.418;2023-02-12T08:58:51;7.50;99.90
15013;DHT22;7603;49.432;11.418;2023-02-12T09:01:19;7.60;99.90
15013;DHT22;7603;49.432;11.418;2023-02-12T09:03:46;7.90;99.90
15013;DHT22;7603;49.432;11.418;2023-02-12T09:06:12;8.20;99.90
15013;DHT22;7603;49.432;11.418;2023-02-12T09:08:39;8.50;99.90
15013;DHT22;7603;49.432;11.418;2023-02-12T09:11:07;8.70;99.90
15013;DHT22;7603;49.432;11.418;2023-02-12T09:13:34;8.80;99.90
15013;DHT22;7603;49.432;11.418;2023-02-12T09:16:01;8.80;99.90
15013;DHT22;7603;49.432;11.418;2023-02-12T09:18:27;8.90;99.90
15013;DHT22;7603;49.432;11.418;2023-02-12T09:20:53;9.00;99.90
15013;DHT22;7603;49.432;11.418;2023-02-12T09:23:19;9.10;99.90
15013;DHT22;7603;49.432;11.418;2023-02-12T09:25:45;9.40;99.90
15013;DHT22;7603;49.432;11.418;2023-02-12T09:28:13;9.80;99.90
15013;DHT22;7603;49.432;11.418;2023-02-12T09:30:39;10.10;99.90
15013;DHT22;7603;49.432;11.418;2023-02-12T09:33:06;10.30;99.90
15013;DHT22;7603;49.432;11.418;2023-02-12T09:35:38;10.40;99.90
15013;DHT22;7603;49.432;11.418;2023-02-12T09:38:05;10.60;99.90
15013;DHT22;7603;49.432;11.418;2023-02-12T09:49:22;11.40;99.90
15013;DHT22;7603;49.432;11.418;2023-02-12T09:51:27;11.50;99.90
15013;DHT22;7603;49.432;11.418;2023-02-12T09:54:10;11.40;99.90
15013;DHT22;7603;49.432;11.418;2023-02-12T09:56:38;11.40;99.90
15013;DHT22;7603;49.432;11.418;2023-02-12T09:59:08;11.30;99.90
15013;DHT22;7603;49.432;11.418;2023-02-12T10:01:34;11.40;99.90
15013;DHT22;7603;49.432;11.418;2023-02-12T10:04:00;11.40;99.90
15013;DHT22;7603;49.432;11.418;2023-02-12T10:06:41;11.50;99.90
15013;DHT22;7603;49.432;11.418;2023-02-12T10:12:03;11.90;99.90
15013;DHT22;7603;49.432;11.418;2023-02-12T10:25:11;14.80;99.90
15013;DHT22;7603;49.432;11.418;2023-02-12T10:27:54;15.20;99.90
15013;DHT22;7603;49.432;11.418;2023-02-12T10:30:52;15.80;99.90
15013;DHT22;7603;49.432;11.418;2023-02-12T10:36:08;17.70;99.90
15013;DHT22;7603;49.432;11.418;2023-02-12T10:38:41;18.00;99.90
15013;DHT22;7603;49.432;11.418;2023-02-12T10:41:11;17.80;99.90
15013;DHT22;7603;49.432;11.418;2023-02-12T10:43:36;17.30;99.10
15013;DHT22;7603;49.432;11.418;2023-02-12T10:46:02;17.10;99.80
15013;DHT22;7603;49.432;11.418;2023-02-12T10:48:35;17.10;99.50
15013;DHT22;7603;49.432;11.418;2023-02-12T10:53:43;17.60;97.70
15013;DHT22;7603;49.432;11.418;2023-02-12T11:01:33;18.40;94.20
15013;DHT22;7603;49.432;11.418;2023-02-12T11:04:20;19.50;92.70
15013;DHT22;7603;49.432;11.418;2023-02-12T11:07:07;20.40;88.00
15013;DHT22;7603;49.432;11.418;2023-02-12T11:09:38;20.80;83.30
15013;DHT22;7603;49.432;11.418;2023-02-12T11:12:40;20.70;84.00
15013;DHT22;7603;49.432;11.418;2023-02-12T11:15:17;20.70;81.60
15013;DHT22;7603;49.432;11.418;2023-02-12T11:17:55;21.10;80.00
15013;DHT22;7603;49.432;11.418;2023-02-12T11:20:26;21.60;76.40
15013;DHT22;7603;49.432;11.418;2023-02-12T11:25:23;22.20;73.30
15013;DHT22;7603;49.432;11.418;2023-02-12T11:30:24;23.10;65.70
15013;DHT22;7603;49.432;11.418;2023-02-12T11:32:49;23.40;65.90
15013;DHT22;7603;49.432;11.418;2023-02-12T11:35:22;23.50;64.60
15013;DHT22;7603;49.432;11.418;2023-02-12T11:37:56;23.60;61.70
15013;DHT22;7603;49.432;11.418;2023-02-12T11:40:31;23.30;62.40
15013;DHT22;7603;49.432;11.418;2023-02-12T11:43:03;23.20;62.50
15013;DHT22;7603;49.432;11.418;2023-02-12T11:45:44;22.90;62.00
15013;DHT22;7603;49.432;11.418;2023-02-12T11:50:49;21.60;61.80
15013;DHT22;7603;49.432;11.418;2023-02-12T11:56:03;20.20;65.60
15013;DHT22;7603;49.432;11.418;2023-02-12T11:58:30;19.50;67.90
15013;DHT22;7603;49.432;11.418;2023-02-12T12:01:03;19.10;69.50
15013;DHT22;7603;49.432;11.418;2023-02-12T12:03:39;18.70;71.00
15013;DHT22;7603;49.432;11.418;2023-02-12T12:06:29;18.50;72.40
15013;DHT22;7603;49.432;11.418;2023-02-12T12:14:26;17.50;76.10
15013;DHT22;7603;49.432;11.418;2023-02-12T12:17:05;17.20;77.40
15013;DHT22;7603;49.432;11.418;2023-02-12T12:20:03;16.90;79.00
15013;DHT22;7603;49.432;11.418;2023-02-12T12:22:59;16.50;79.70
15013;DHT22;7603;49.432;11.418;2023-02-12T12:25:29;16.20;81.60
15013;DHT22;7603;49.432;11.418;2023-02-12T12:27:58;15.90;82.80
15013;DHT22;7603;49.432;11.418;2023-02-12T12:38:42;15.30;87.50
15013;DHT22;7603;49.432;11.418;2023-02-12T12:41:17;15.30;88.90
15013;DHT22;7603;49.432;11.418;2023-02-12T12:44:19;15.30;89.00
15013;DHT22;7603;49.432;11.418;2023-02-12T12:47:13;15.20;89.60
15013;DHT22;7603;49.432;11.418;2023-02-12T12:55:21;13.90;92.70
15013;DHT22;7603;49.432;11.418;2023-02-12T12:58:23;13.60;93.90
15013;DHT22;7603;49.432;11.418;2023-02-12T13:01:14;13.30;95.30
15013;DHT22;7603;49.432;11.418;2023-02-12T13:09:28;13.00;98.50
15013;DHT22;7603;49.432;11.418;2023-02-12T13:17:49;12.70;99.90
15013;DHT22;7603;49.432;11.418;2023-02-12T13:20:38;12.60;99.90
15013;DHT22;7603;49.432;11.418;2023-02-12T13:26:36;12.60;99.90
15013;DHT22;7603;49.432;11.418;2023-02-12T13:29:19;12.50;99.90
15013;DHT22;7603;49.432;11.418;2023-02-12T13:31:52;12.50;99.90
15013;DHT22;7603;49.432;11.418;2023-02-12T13:34:19;12.60;99.90
15013;DHT22;7603;49.432;11.418;2023-02-12T13:36:48;12.80;99.90
15013;DHT22;7603;49.432;11.418;2023-02-12T13:39:36;12.80;99.90
15013;DHT22;7603;49.432;11.418;2023-02-12T13:42:08;12.90;99.90
15013;DHT22;7603;49.432;11.418;2023-02-12T13:47:32;12.70;99.90
15013;DHT22;7603;49.432;11.418;2023-02-12T13:53:22;12.70;99.90
15013;DHT22;7603;49.432;11.418;2023-02-12T13:56:03;12.70;99.90
15013;DHT22;7603;49.432;11.418;2023-02-12T14:03:26;12.60;99.90
15013;DHT22;7603;49.432;11.418;2023-02-12T14:06:14;12.60;99.90
15013;DHT22;7603;49.432;11.418;2023-02-12T14:08:45;12.50;99.90
15013;DHT22;7603;49.432;11.418;2023-02-12T14:11:17;12.30;99.90
15013;DHT22;7603;49.432;11.418;2023-02-12T14:13:51;12.20;99.90
15013;DHT22;7603;49.432;11.418;2023-02-12T14:16:34;12.10;99.90
15013;DHT22;7603;49.432;11.418;2023-02-12T14:24:56;12.30;99.90
15013;DHT22;7603;49.432;11.418;2023-02-12T14:37:52;12.30;99.90
15013;DHT22;7603;49.432;11.418;2023-02-12T14:43:01;12.20;99.90
15013;DHT22;7603;49.432;11.418;2023-02-12T14:45:33;12.10;99.90
15013;DHT22;7603;49.432;11.418;2023-02-12T14:47:59;12.00;99.90
15013;DHT22;7603;49.432;11.418;2023-02-12T14:50:29;11.90;99.90
15013;DHT22;7603;49.432;11.418;2023-02-12T14:53:04;11.80;99.90
15013;DHT22;7603;49.432;11.418;2023-02-12T14:55:32;11.60;99.90
15013;DHT22;7603;49.432;11.418;2023-02-12T14:58:02;11.60;99.90
15013;DHT22;7603;49.432;11.418;2023-02-12T15:00:35;11.40;99.90
15013;DHT22;7603;49.432;11.418;2023-02-12T15:03:21;11.40;99.90
15013;DHT22;7603;49.432;11.418;2023-02-12T15:06:18;11.30;99.90
15013;DHT22;7603;49.432;11.418;2023-02-12T15:09:09;11.20;99.90
15013;DHT22;7603;49.432;11.418;2023-02-12T15:11:46;11.10;99.90
15013;DHT22;7603;49.432;11.418;2023-02-12T15:14:27;11.00;99.90
15013;DHT22;7603;49.432;11.418;2023-02-12T15:24:47;10.60;99.90
15013;DHT22;7603;49.432;11.418;2023-02-12T15:27:13;10.50;99.90
15013;DHT22;7603;49.432;11.418;2023-02-12T15:29:48;10.40;99.90
15013;DHT22;7603;49.432;11.418;2023-02-12T15:32:21;10.30;99.90
15013;DHT22;7603;49.432;11.418;2023-02-12T15:34:49;10.20;99.90
15013;DHT22;7603;49.432;11.418;2023-02-12T15:37:21;10.10;99.90
15013;DHT22;7603;49.432;11.418;2023-02-12T15:39:47;10.10;99.90
15013;DHT22;7603;49.432;11.418;2023-02-12T15:44:50;9.90;99.90
15013;DHT22;7603;49.432;11.418;2023-02-12T15:47:15;9.80;99.90
15013;DHT22;7603;49.432;11.418;2023-02-12T15:49:42;9.80;99.90
15013;DHT22;7603;49.432;11.418;2023-02-12T15:52:15;9.70;99.90
15013;DHT22;7603;49.432;11.418;2023-02-12T15:54:43;9.60;99.90
15013;DHT22;7603;49.432;11.418;2023-02-12T15:57:18;9.50;99.90
15013;DHT22;7603;49.432;11.418;2023-02-12T15:59:51;9.50;99.90
15013;DHT22;7603;49.432;11.418;2023-02-12T16:02:25;9.50;99.90
15013;DHT22;7603;49.432;11.418;2023-02-12T16:04:53;9.40;99.90
15013;DHT22;7603;49.432;11.418;2023-02-12T16:07:19;9.30;99.90
15013;DHT22;7603;49.432;11.418;2023-02-12T16:09:46;9.20;99.90
15013;DHT22;7603;49.432;11.418;2023-02-12T16:12:14;9.10;99.90
15013;DHT22;7603;49.432;11.418;2023-02-12T16:14:46;9.00;99.90
15013;DHT22;7603;49.432;11.418;2023-02-12T16:17:26;8.90;99.90
15013;DHT22;7603;49.432;11.418;2023-02-12T16:19:57;8.70;99.90
15013;DHT22;7603;49.432;11.418;2023-02-12T16:22:37;8.60;99.90
15013;DHT22;7603;49.432;11.418;2023-02-12T16:25:24;8.50;99.90
15013;DHT22;7603;49.432;11.418;2023-02-12T16:27:56;8.40;99.90
15013;DHT22;7603;49.432;11.418;2023-02-12T16:30:26;8.30;99.90
15013;DHT22;7603;49.432;11.418;2023-02-12T16:32:53;8.10;99.90
15013;DHT22;7603;49.432;11.418;2023-02-12T16:35:33;8.00;99.90
15013;DHT22;7603;49.432;11.418;2023-02-12T16:40:35;7.90;99.90
15013;DHT22;7603;49.432;11.418;2023-02-12T16:43:04;7.90;99.90
15013;DHT22;7603;49.432;11.418;2023-02-12T16:45:33;7.70;99.90
15013;DHT22;7603;49.432;11.418;2023-02-12T16:50:35;7.60;99.90
15013;DHT22;7603;49.432;11.418;2023-02-12T16:53:16;7.50;99.90
15013;DHT22;7603;49.432;11.418;2023-02-12T16:55:46;7.50;99.90
15013;DHT22;7603;49.432;11.418;2023-02-12T16:58:12;7.40;99.90
15013;DHT22;7603;49.432;11.418;2023-02-12T17:00:38;7.40;99.90
15013;DHT22;7603;49.432;11.418;2023-02-12T17:03:05;7.30;99.90
15013;DHT22;7603;49.432;11.418;2023-02-12T17:05:30;7.30;99.90
15013;DHT22;7603;49.432;11.418;2023-02-12T17:07:56;7.30;99.90
15013;DHT22;7603;49.432;11.418;2023-02-12T17:10:21;7.20;99.90
15013;DHT22;7603;49.432;11.418;2023-02-12T17:12:49;7.20;99.90
15013;DHT22;7603;49.432;11.418;2023-02-12T17:15:37;7.20;99.90
15013;DHT22;7603;49.432;11.418;2023-02-12T17:18:05;7.10;99.90
15013;DHT22;7603;49.432;11.418;2023-02-12T17:20:32;7.00;99.90
15013;DHT22;7603;49.432;11.418;2023-02-12T17:22:57;7.00;99.90
15013;DHT22;7603;49.432;11.418;2023-02-12T17:25:24;6.90;99.90
15013;DHT22;7603;49.432;11.418;2023-02-12T17:27:50;7.00;99.90
15013;DHT22;7603;49.432;11.418;2023-02-12T17:30:18;6.90;99.90
15013;DHT22;7603;49.432;11.418;2023-02-12T17:32:45;6.90;99.90
15013;DHT22;7603;49.432;11.418;2023-02-12T17:35:12;6.90;99.90
15013;DHT22;7603;49.432;11.418;2023-02-12T17:37:38;6.80;99.90
15013;DHT22;7603;49.432;11.418;2023-02-12T17:40:05;6.80;99.90
15013;DHT22;7603;49.432;11.418;2023-02-12T17:42:31;6.70;99.90
15013;DHT22;7603;49.432;11.418;2023-02-12T17:44:57;6.70;99.90
15013;DHT22;7603;49.432;11.418;2023-02-12T17:47:22;6.70;99.90
15013;DHT22;7603;49.432;11.418;2023-02-12T17:49:48;6.60;99.90
15013;DHT22;7603;49.432;11.418;2023-02-12T17:52:13;6.60;99.90
15013;DHT22;7603;49.432;11.418;2023-02-12T17:54:39;6.60;99.90
15013;DHT22;7603;49.432;11.418;2023-02-12T17:57:08;6.60;99.90
15013;DHT22;7603;49.432;11.418;2023-02-12T17:59:36;6.50;99.90
15013;DHT22;7603;49.432;11.418;2023-02-12T18:02:02;6.50;99.90
15013;DHT22;7603;49.432;11.418;2023-02-12T18:04:30;6.50;99.90
15013;DHT22;7603;49.432;11.418;2023-02-12T18:06:58;6.50;99.90
15013;DHT22;7603;49.432;11.418;2023-02-12T18:09:23;6.50;99.90
15013;DHT22;7603;49.432;11.418;2023-02-12T18:11:49;6.50;99.90
15013;DHT22;7603;49.432;11.418;2023-02-12T18:14:14;6.40;99.90
15013;DHT22;7603;49.432;11.418;2023-02-12T18:16:40;6.40;99.90
15013;DHT22;7603;49.432;11.418;2023-02-12T18:19:06;6.40;99.90
15013;DHT22;7603;49.432;11.418;2023-02-12T18:21:31;6.30;99.90
15013;DHT22;7603;49.432;11.418;2023-02-12T18:23:59;6.20;99.90
15013;DHT22;7603;49.432;11.418;2023-02-12T18:26:25;6.20;99.90
15013;DHT22;7603;49.432;11.418;2023-02-12T18:28:51;6.10;99.90
15013;DHT22;7603;49.432;11.418;2023-02-12T18:31:18;6.10;99.90
15013;DHT22;7603;49.432;11.418;2023-02-12T18:33:45;6.00;99.90
15013;DHT22;7603;49.432;11.418;2023-02-12T18:36:13;6.00;99.90
15013;DHT22;7603;49.432;11.418;2023-02-12T18:38:40;6.00;99.90
15013;DHT22;7603;49.432;11.418;2023-02-12T18:41:11;6.00;99.90